Bezoek ook deze websites:

Template documentation
and downloads

And another site



METAR rapporten vliegvelden


Warning: curl_setopt(): CURLOPT_FOLLOWLOCATION cannot be activated when an open_basedir is set in /home/w16454we/public_html/weather28/metar/wsMetarTxt.php on line 747

Warning: curl_setopt(): CURLOPT_FOLLOWLOCATION cannot be activated when an open_basedir is set in /home/w16454we/public_html/weather28/metar/wsMetarTxt.php on line 747

Warning: curl_setopt(): CURLOPT_FOLLOWLOCATION cannot be activated when an open_basedir is set in /home/w16454we/public_html/weather28/metar/wsMetarTxt.php on line 747

Warning: curl_setopt(): CURLOPT_FOLLOWLOCATION cannot be activated when an open_basedir is set in /home/w16454we/public_html/weather28/metar/wsMetarTxt.php on line 747

Warning: curl_setopt(): CURLOPT_FOLLOWLOCATION cannot be activated when an open_basedir is set in /home/w16454we/public_html/weather28/metar/wsMetarTxt.php on line 747

Warning: curl_setopt(): CURLOPT_FOLLOWLOCATION cannot be activated when an open_basedir is set in /home/w16454we/public_html/weather28/metar/wsMetarTxt.php on line 747
   
EHVK - Volkel Rnlafb, Netherlands
Afstand tot: ZW 18 km
Gewijzigd: 09-12-2019 11:25
Bewolking  
Bewolking  
   Wind: WZW 18.5 km/h
Wind: WZW 18.5 km/h
Temperatuur: 8°C
Voelt als: 5°C
Dauwpunt: 6°C
Vochtigheid: 87%
Barometer: 997 hPa
Bewolking: Bewolking
Zicht: meer dan 10 km
Bewolking: Licht bewolkt 1000 ft,
Grotendeels bewolkt 1400 ft,
Bewolking 1700 ft
EHVK 091025Z AUTO 25010KT 9999 FEW010 BKN014 OVC017 08/06 Q0997 GRN 26013KT 9999 FEW010 SCT020 TEMPO 4500 -SHRA SCT010 SCT018CB BKN020
EDLV - Niederrhein, Germany
Afstand tot: ZO 25 km
Gewijzigd: 09-12-2019 11:20
Grotendeels bewolkt  
Grotendeels bewolkt  
   Wind: WZW 20.4 km/h
Wind: WZW 20.4 km/h
Temperatuur: 8°C
Voelt als: 5°C
Dauwpunt: 6°C
Vochtigheid: 87%
Barometer: 997 hPa
Bewolking: Grotendeels bewolkt
Zicht: meer dan 10 km
Bewolking: Grotendeels bewolkt 1800 ft
EDLV 091020Z 25011KT 9999 BKN018 08/06 Q0997
EHDL - Deelen Rnlafb, Netherlands
Afstand tot: N 35 km
Gewijzigd: 09-12-2019 11:25
Grotendeels bewolkt  
Grotendeels bewolkt  
   Wind: WZW 13 km/h
Wind: WZW 13 km/h
Temperatuur: 7°C
Voelt als: 4°C
Dauwpunt: 6°C
Vochtigheid: 93%
Barometer: 996 hPa
Bewolking: Grotendeels bewolkt
Zicht: meer dan 10 km
Bewolking: Licht bewolkt 3600 ft,
Gedeeltelijk bewolkt 4100 ft,
Grotendeels bewolkt 7700 ft
EHDL 091025Z AUTO 25007KT 210V300 9999 FEW036 SCT041 BKN077 07/06 Q0996 BLU
EHEH - Eindhoven Rnlafb, Netherlands
Afstand tot: ZW 48 km
Gewijzigd: 09-12-2019 11:26
Light Showers, Regen, Grotendeels bewolkt  
Light Showers, Regen, Grotendeels bewolkt  
   Wind: WZW 22.2 km/h
Wind: WZW 22.2 km/h
Temperatuur: 7°C
Voelt als: 3°C
Dauwpunt: 6°C
Vochtigheid: 93%
Barometer: 998 hPa
Bewolking: Grotendeels bewolkt
Zicht: meer dan 10 km
Bewolking: Licht bewolkt 900 ft,
Gedeeltelijk bewolkt 1300 ft,
Grotendeels bewolkt 1900 ft
EHEH 091026Z AUTO 24012KT 210V280 9999 -SHRA FEW009 SCT013 BKN019 07/06 Q0998 GRN 25012KT 9999 SCT020 BKN030 TEMPO 29015G25KT 4000 SHRA SCT010 SCT018CB BKN020
EHGR - Gilze-Rijen Rnla, Netherlands
Afstand tot: WZW 70 km
Gewijzigd: 09-12-2019 11:29
Grotendeels bewolkt  
Grotendeels bewolkt  
   Wind: Westen 11.1 km/h
Wind: Westen 11.1 km/h
Temperatuur: 7°C
Voelt als: 5°C
Dauwpunt: 6°C
Vochtigheid: 93%
Barometer: 998 hPa
Bewolking: Grotendeels bewolkt
Zicht: meer dan 10 km
Bewolking: Licht bewolkt 1200 ft,
Gedeeltelijk bewolkt 1500 ft,
Grotendeels bewolkt 1900 ft
EHGR 091029Z AUTO 27006KT 9999 FEW012 SCT015 BKN019 07/06 Q0998 WHT 22010KT 9999 BKN020 BKN045 TEMPO 24015G25KT 4500 SHRA FEW007 SCT010 BKN025
EBBL - Kleine-Brogel(Ba, Belgium
Afstand tot: ZZW 71 km
Gewijzigd: 09-12-2019 11:25
Light Showers, Regen, Grotendeels bewolkt  
Light Showers, Regen, Grotendeels bewolkt  
   Wind: WZW 22.2 km/h
Wind: WZW 22.2 km/h
Temperatuur: 7°C
Voelt als: 3°C
Dauwpunt: 5°C
Vochtigheid: 87%
Barometer: 999 hPa
Bewolking: Grotendeels bewolkt
Zicht: 5 km
Bewolking: Gedeeltelijk bewolkt 1100 ft,
Grotendeels bewolkt 2000 ft
EBBL 091025Z 25012KT 4500 -SHRA SCT011 BKN020 07/05 Q0999 GRN BLU TEMPO GRN

Script ontwikkeld door  Saratoga-weather.org Aangepast voor de template door  Weerstation Leuven

U vindt ons ook hier:

Het Weer Aktueel

UK Metoffice

WeatherCloud

Weather Underground

AWEKAS

HAMweather, WeatherForYou, PWS Weather

Apparatuur in gebruik:

Weerstation
Davis Vantage Vue

Weerprogramma
Meteobridge

Davis Vantage Vue

Meteobridge